Arcanum, Ohio
Current Conditions -  °F | °C
As of 6:56 AM on Monday 26 Jan 2015 (Local Time) from KDAY Reporting Station
Haze Haze  
Wind Chill:   Ceiling: 3700
Heat Index: 18°   Visibility: 6mi
Dew Point: 14°   Wind: 15mph
Humidity: 84%   Direction: 360°N
Pressure: 29.83"   Gusts: NA
Location:  39.99°N, 84.55°W
Report Text: KDAY 261156Z 36013KT 6SM BR OVC037 M08/M10 A2983 RMK AO2 SLP114 4/004 T10781100 11050 21078 51012
Loading
Personal Weather Stations






























Interactive Weather Map New forecast layout! Learn more

10-Day Weather Forecast

Advertisements
Track Severe Weather on mobile